createdAt,value
2018-07-03T00:00:49.895Z,0.00
2018-07-03T00:01:49.906Z,0.00
2018-07-03T00:02:49.869Z,0.00
2018-07-03T00:03:49.865Z,0.00
2018-07-03T00:04:49.852Z,0.00
2018-07-03T00:05:49.844Z,0.00
2018-07-03T00:06:49.833Z,0.00
2018-07-03T00:07:49.817Z,0.00
2018-07-03T00:08:49.810Z,0.00
2018-07-03T00:09:49.796Z,0.00
2018-07-03T00:10:49.783Z,0.00
2018-07-03T00:11:49.780Z,0.00
2018-07-03T00:12:49.768Z,0.00
2018-07-03T00:13:49.755Z,0.00
2018-07-03T00:14:49.749Z,0.00
2018-07-03T00:15:49.728Z,0.00
2018-07-03T00:16:49.729Z,0.00
2018-07-03T00:17:49.749Z,0.00
2018-07-03T00:18:49.704Z,0.00
2018-07-03T00:19:49.690Z,0.00
2018-07-03T00:20:49.677Z,0.00
2018-07-03T00:21:49.668Z,0.00
2018-07-03T00:22:49.654Z,0.00
2018-07-03T00:23:49.653Z,0.00
2018-07-03T00:24:49.637Z,0.00
2018-07-03T00:25:49.627Z,0.00
2018-07-03T00:26:49.619Z,0.00
2018-07-03T00:27:49.601Z,0.00
2018-07-03T00:28:49.594Z,0.00
2018-07-03T00:29:49.582Z,0.00
2018-07-03T00:30:49.570Z,0.00
2018-07-03T00:31:49.565Z,0.00
2018-07-03T00:32:49.553Z,0.00
2018-07-03T00:33:49.551Z,0.00
2018-07-03T00:34:49.525Z,0.00
2018-07-03T00:35:49.544Z,0.00
2018-07-03T00:36:49.510Z,0.00
2018-07-03T00:37:49.498Z,0.00
2018-07-03T00:38:49.492Z,0.00
2018-07-03T00:39:49.476Z,0.00
2018-07-03T00:40:49.478Z,0.00
2018-07-03T00:41:49.453Z,0.00
2018-07-03T00:42:49.439Z,0.00
2018-07-03T00:43:49.437Z,0.00
2018-07-03T00:44:49.423Z,0.00
2018-07-03T00:45:49.412Z,0.00
2018-07-03T00:46:49.403Z,0.00
2018-07-03T00:47:49.385Z,0.00
2018-07-03T00:48:49.395Z,0.00
2018-07-03T00:49:49.368Z,0.00
2018-07-03T00:50:49.360Z,0.00
2018-07-03T00:51:49.343Z,0.00
2018-07-03T00:52:49.336Z,0.00
2018-07-03T00:53:49.358Z,0.00
2018-07-03T00:54:49.309Z,0.00
2018-07-03T00:55:49.305Z,0.00
2018-07-03T00:56:49.321Z,0.00
2018-07-03T00:57:49.282Z,0.00
2018-07-03T00:58:49.274Z,0.00
2018-07-03T00:59:49.258Z,0.00
2018-07-03T01:00:49.247Z,0.00
2018-07-03T01:01:49.239Z,0.00
2018-07-03T01:02:49.222Z,0.00
2018-07-03T01:03:49.231Z,0.00
2018-07-03T01:04:49.208Z,0.00
2018-07-03T01:05:49.193Z,0.00
2018-07-03T01:06:49.180Z,0.00
2018-07-03T01:07:49.179Z,0.00
2018-07-03T01:08:49.162Z,0.00
2018-07-03T01:09:49.180Z,0.00
2018-07-03T01:10:49.143Z,0.00
2018-07-03T01:11:49.125Z,0.00
2018-07-03T01:12:49.117Z,0.00
2018-07-03T01:13:49.107Z,0.00
2018-07-03T01:14:49.094Z,0.00
2018-07-03T01:15:49.097Z,0.00
2018-07-03T01:16:49.077Z,0.00
2018-07-03T01:17:49.065Z,0.00
2018-07-03T01:18:49.056Z,0.00
2018-07-03T01:19:49.039Z,0.00
2018-07-03T01:20:49.033Z,0.00
2018-07-03T01:21:49.022Z,0.00
2018-07-03T01:22:49.020Z,0.00
2018-07-03T01:23:48.996Z,0.00
2018-07-03T01:24:48.987Z,0.00
2018-07-03T01:25:48.977Z,0.00
2018-07-03T01:26:48.963Z,0.00
2018-07-03T01:27:48.957Z,0.00
2018-07-03T01:28:48.941Z,0.00
2018-07-03T01:29:48.932Z,0.00
2018-07-03T01:30:48.941Z,0.00
2018-07-03T01:31:48.913Z,0.00
2018-07-03T01:32:48.905Z,0.00
2018-07-03T01:33:48.894Z,0.00
2018-07-03T01:34:48.880Z,0.00
2018-07-03T01:35:48.889Z,0.00
2018-07-03T01:36:48.854Z,0.00
2018-07-03T01:37:48.870Z,0.00
2018-07-03T01:38:48.840Z,0.00
2018-07-03T01:39:48.838Z,0.00
2018-07-03T01:40:48.851Z,0.00
2018-07-03T01:41:48.801Z,0.00
2018-07-03T01:42:48.793Z,0.00
2018-07-03T01:43:48.801Z,0.00
2018-07-03T01:44:48.824Z,0.00
2018-07-03T01:45:48.777Z,0.00
2018-07-03T01:46:48.783Z,0.00
2018-07-03T01:47:48.741Z,0.00
2018-07-03T01:48:48.752Z,0.00
2018-07-03T01:49:48.716Z,0.00
2018-07-03T01:50:48.706Z,0.00
2018-07-03T01:51:48.699Z,0.00
2018-07-03T01:52:48.689Z,0.00
2018-07-03T01:53:48.671Z,0.00
2018-07-03T01:54:48.662Z,0.00
2018-07-03T01:55:48.654Z,0.00
2018-07-03T01:56:48.648Z,0.00
2018-07-03T01:57:48.638Z,0.00
2018-07-03T01:58:48.622Z,0.00
2018-07-03T01:59:48.610Z,0.00
2018-07-03T02:00:48.599Z,0.00
2018-07-03T02:01:48.588Z,0.00
2018-07-03T02:02:48.585Z,0.00
2018-07-03T02:03:48.569Z,0.00
2018-07-03T02:04:48.563Z,0.00
2018-07-03T02:05:48.548Z,0.00
2018-07-03T02:06:48.554Z,0.00
2018-07-03T02:07:48.523Z,0.00
2018-07-03T02:08:48.509Z,0.00
2018-07-03T02:09:48.506Z,0.00
2018-07-03T02:10:48.493Z,0.00
2018-07-03T02:11:48.494Z,0.00
2018-07-03T02:12:48.467Z,0.00
2018-07-03T02:13:48.457Z,0.00
2018-07-03T02:14:48.447Z,0.00
2018-07-03T02:15:48.439Z,0.00
2018-07-03T02:16:48.444Z,0.00
2018-07-03T02:17:48.427Z,0.00
2018-07-03T02:18:48.412Z,0.00
2018-07-03T02:19:48.397Z,0.00
2018-07-03T02:20:48.383Z,0.00
2018-07-03T02:21:48.396Z,0.00
2018-07-03T02:22:48.363Z,0.00
2018-07-03T02:23:48.362Z,0.00
2018-07-03T02:24:48.342Z,0.00
2018-07-03T02:25:48.331Z,0.00
2018-07-03T02:26:48.335Z,0.00
2018-07-03T02:27:48.312Z,0.00
2018-07-03T02:28:48.299Z,0.00
2018-07-03T02:29:48.288Z,0.00
2018-07-03T02:30:48.280Z,0.00
2018-07-03T02:31:48.295Z,0.00
2018-07-03T02:32:48.255Z,0.00
2018-07-03T02:33:48.257Z,4.00
2018-07-03T02:34:48.231Z,4.00
2018-07-03T02:35:48.228Z,4.00
2018-07-03T02:36:48.214Z,0.00
2018-07-03T02:37:48.208Z,4.00
2018-07-03T02:38:48.194Z,4.00
2018-07-03T02:39:48.178Z,4.00
2018-07-03T02:40:48.174Z,4.00
2018-07-03T02:41:48.163Z,4.00
2018-07-03T02:42:48.186Z,8.00
2018-07-03T02:43:48.134Z,8.00
2018-07-03T02:44:48.126Z,4.00
2018-07-03T02:45:48.130Z,8.00
2018-07-03T02:46:48.122Z,8.00
2018-07-03T02:47:48.103Z,12.00
2018-07-03T02:48:48.086Z,12.00
2018-07-03T02:49:48.073Z,16.00
2018-07-03T02:50:48.066Z,16.00
2018-07-03T02:51:48.048Z,16.00
2018-07-03T02:52:48.062Z,20.00
2018-07-03T02:53:48.035Z,20.00
2018-07-03T02:54:48.017Z,28.00
2018-07-03T02:55:48.012Z,28.00
2018-07-03T02:56:48.000Z,32.00
2018-07-03T02:57:48.020Z,40.00
2018-07-03T02:58:47.974Z,40.00
2018-07-03T02:59:47.969Z,48.00
2018-07-03T03:00:47.957Z,52.00
2018-07-03T03:01:47.993Z,60.00
2018-07-03T03:02:47.993Z,68.00
2018-07-03T03:03:47.972Z,72.00
2018-07-03T03:04:47.914Z,80.00
2018-07-03T03:05:47.951Z,92.00
2018-07-03T03:06:47.889Z,100.00
2018-07-03T03:07:47.885Z,108.00
2018-07-03T03:08:47.875Z,120.00
2018-07-03T03:09:47.861Z,132.00
2018-07-03T03:10:47.853Z,144.00
2018-07-03T03:11:47.854Z,160.00
2018-07-03T03:12:47.830Z,176.00
2018-07-03T03:13:47.844Z,188.00
2018-07-03T03:14:47.809Z,208.00
2018-07-03T03:15:47.793Z,224.00
2018-07-03T03:16:47.784Z,244.00
2018-07-03T03:17:47.779Z,260.00
2018-07-03T03:18:47.779Z,280.00
2018-07-03T03:19:47.756Z,308.00
2018-07-03T03:20:47.749Z,324.00
2018-07-03T03:21:47.738Z,348.00
2018-07-03T03:22:47.725Z,372.00
2018-07-03T03:23:47.732Z,392.00
2018-07-03T03:24:47.704Z,416.00
2018-07-03T03:25:47.689Z,444.00
2018-07-03T03:26:47.693Z,472.00
2018-07-03T03:27:47.669Z,496.00
2018-07-03T03:28:47.656Z,524.00
2018-07-03T03:29:47.652Z,556.00
2018-07-03T03:30:47.631Z,588.00
2018-07-03T03:31:47.630Z,620.00
2018-07-03T03:32:47.616Z,652.00
2018-07-03T03:33:47.602Z,684.00
2018-07-03T03:34:47.613Z,724.00
2018-07-03T03:35:47.579Z,760.00
2018-07-03T03:36:47.567Z,796.00
2018-07-03T03:37:47.556Z,832.00
2018-07-03T03:38:47.545Z,868.00
2018-07-03T03:39:47.604Z,904.00
2018-07-03T03:40:47.557Z,944.00
2018-07-03T03:41:47.516Z,984.00
2018-07-03T03:42:47.509Z,1020.00
2018-07-03T03:43:47.492Z,1064.00
2018-07-03T03:44:47.486Z,1104.00
2018-07-03T03:45:47.474Z,1140.00
2018-07-03T03:46:47.467Z,1172.00
2018-07-03T03:47:47.447Z,1212.00
2018-07-03T03:48:47.447Z,1240.00
2018-07-03T03:49:47.431Z,1276.00
2018-07-03T03:50:47.416Z,1300.00
2018-07-03T03:51:47.412Z,1332.00
2018-07-03T03:52:47.401Z,1360.00
2018-07-03T03:53:47.443Z,1392.00
2018-07-03T03:54:47.381Z,1420.00
2018-07-03T03:55:47.384Z,1452.00
2018-07-03T03:56:47.353Z,1480.00
2018-07-03T03:57:47.346Z,1504.00
2018-07-03T03:58:47.330Z,1532.00
2018-07-03T03:59:47.357Z,1560.00
2018-07-03T04:00:47.333Z,1588.00
2018-07-03T04:01:47.314Z,1616.00
2018-07-03T04:02:47.290Z,1640.00
2018-07-03T04:03:47.284Z,1664.00
2018-07-03T04:04:47.280Z,1688.00
2018-07-03T04:05:47.260Z,1712.00
2018-07-03T04:06:47.251Z,1732.00
2018-07-03T04:07:47.234Z,1756.00
2018-07-03T04:08:47.235Z,1772.00
2018-07-03T04:09:47.232Z,1788.00
2018-07-03T04:10:47.203Z,1808.00
2018-07-03T04:11:47.197Z,1828.00
2018-07-03T04:12:47.182Z,1844.00
2018-07-03T04:13:47.174Z,1864.00
2018-07-03T04:14:47.196Z,1880.00
2018-07-03T04:15:47.146Z,1912.00
2018-07-03T04:16:47.138Z,1932.00
2018-07-03T04:17:47.130Z,1956.00
2018-07-03T04:18:47.121Z,1976.00
2018-07-03T04:19:47.104Z,2004.00
2018-07-03T04:20:47.097Z,2020.00
2018-07-03T04:21:47.084Z,2040.00
2018-07-03T04:22:47.074Z,2060.00
2018-07-03T04:23:47.067Z,2080.00
2018-07-03T04:24:47.054Z,2100.00
2018-07-03T04:25:47.046Z,2124.00
2018-07-03T04:26:47.035Z,2144.00
2018-07-03T04:27:47.018Z,2156.00
2018-07-03T04:28:47.029Z,2176.00
2018-07-03T04:29:46.999Z,2196.00
2018-07-03T04:30:47.018Z,2212.00
2018-07-03T04:31:46.982Z,2228.00
2018-07-03T04:32:46.969Z,2240.00
2018-07-03T04:33:46.958Z,2256.00
2018-07-03T04:34:46.943Z,2280.00
2018-07-03T04:35:46.939Z,2300.00
2018-07-03T04:36:46.927Z,2320.00
2018-07-03T04:37:46.915Z,2336.00
2018-07-03T04:38:46.908Z,2356.00
2018-07-03T04:39:46.896Z,2376.00
2018-07-03T04:40:46.880Z,2400.00
2018-07-03T04:41:46.872Z,2412.00
2018-07-03T04:42:46.856Z,2432.00
2018-07-03T04:43:46.851Z,2452.00
2018-07-03T04:44:46.841Z,2468.00
2018-07-03T04:45:46.828Z,2492.00
2018-07-03T04:46:46.862Z,2512.00
2018-07-03T04:47:46.851Z,2528.00
2018-07-03T04:48:46.798Z,2552.00
2018-07-03T04:49:46.843Z,2568.00
2018-07-03T04:50:46.776Z,2580.00
2018-07-03T04:51:46.780Z,2596.00
2018-07-03T04:52:46.750Z,2612.00
2018-07-03T04:53:46.740Z,2628.00
2018-07-03T04:54:46.727Z,2640.00
2018-07-03T04:55:46.722Z,2656.00
2018-07-03T04:56:46.736Z,2672.00
2018-07-03T04:57:46.698Z,2688.00
2018-07-03T04:58:46.691Z,2696.00
2018-07-03T04:59:46.673Z,2712.00
2018-07-03T05:00:46.664Z,2716.00
2018-07-03T05:01:46.654Z,2732.00
2018-07-03T05:02:46.647Z,2740.00
2018-07-03T05:03:46.637Z,2752.00
2018-07-03T05:04:46.622Z,2760.00
2018-07-03T05:05:46.610Z,2776.00
2018-07-03T05:06:46.596Z,2784.00
2018-07-03T05:07:46.596Z,2796.00
2018-07-03T05:08:46.579Z,2800.00
2018-07-03T05:09:46.568Z,2808.00
2018-07-03T05:10:46.561Z,2824.00
2018-07-03T05:11:46.546Z,2836.00
2018-07-03T05:12:46.540Z,2844.00
2018-07-03T05:13:46.524Z,2856.00
2018-07-03T05:14:46.519Z,2864.00
2018-07-03T05:15:46.506Z,2872.00
2018-07-03T05:16:46.494Z,2888.00
2018-07-03T05:17:46.501Z,2900.00
2018-07-03T05:18:46.473Z,2908.00
2018-07-03T05:19:46.460Z,2916.00
2018-07-03T05:20:46.462Z,2928.00
2018-07-03T05:21:46.441Z,2940.00
2018-07-03T05:22:46.470Z,2948.00
2018-07-03T05:23:46.423Z,2960.00
2018-07-03T05:24:46.407Z,2968.00
2018-07-03T05:25:46.399Z,2980.00
2018-07-03T05:26:46.382Z,2988.00
2018-07-03T05:27:46.383Z,2996.00
2018-07-03T05:28:46.368Z,3012.00
2018-07-03T05:29:46.355Z,3012.00
2018-07-03T05:30:46.348Z,3024.00
2018-07-03T05:31:46.393Z,3020.00
2018-07-03T05:32:46.322Z,3032.00
2018-07-03T05:33:46.338Z,3024.00
2018-07-03T05:34:46.296Z,3032.00
2018-07-03T05:35:46.293Z,3036.00
2018-07-03T05:36:46.280Z,3044.00
2018-07-03T05:37:46.266Z,3044.00
2018-07-03T05:38:46.256Z,3060.00
2018-07-03T05:39:46.252Z,3064.00
2018-07-03T05:40:46.237Z,3072.00
2018-07-03T05:41:46.226Z,3084.00
2018-07-03T05:42:46.216Z,3104.00
2018-07-03T05:43:46.201Z,3124.00
2018-07-03T05:44:46.191Z,3144.00
2018-07-03T05:45:46.180Z,3172.00
2018-07-03T05:46:46.167Z,3196.00
2018-07-03T05:47:46.165Z,3216.00
2018-07-03T05:48:46.167Z,3232.00
2018-07-03T05:49:46.138Z,3248.00
2018-07-03T05:50:46.128Z,3264.00
2018-07-03T05:51:46.118Z,3280.00
2018-07-03T05:52:46.108Z,3300.00
2018-07-03T05:53:46.119Z,3312.00
2018-07-03T05:54:46.085Z,3328.00
2018-07-03T05:55:46.069Z,3340.00
2018-07-03T05:56:46.060Z,3368.00
2018-07-03T05:57:46.050Z,3396.00
2018-07-03T05:58:46.043Z,3416.00
2018-07-03T05:59:46.039Z,3440.00
2018-07-03T06:00:46.019Z,3460.00
2018-07-03T06:01:46.008Z,3496.00
2018-07-03T06:02:46.004Z,3496.00
2018-07-03T06:03:45.986Z,3504.00
2018-07-03T06:04:45.976Z,3512.00
2018-07-03T06:05:45.962Z,3524.00
2018-07-03T06:06:45.953Z,3536.00
2018-07-03T06:07:45.946Z,3544.00
2018-07-03T06:08:45.932Z,3556.00
2018-07-03T06:09:45.922Z,3568.00
2018-07-03T06:10:45.907Z,3572.00
2018-07-03T06:11:45.903Z,3580.00
2018-07-03T06:12:45.890Z,3588.00
2018-07-03T06:13:45.879Z,3596.00
2018-07-03T06:14:45.901Z,3604.00
2018-07-03T06:15:45.861Z,3612.00
2018-07-03T06:16:45.848Z,3724.00
2018-07-03T06:17:45.833Z,3712.00
2018-07-03T06:18:45.820Z,3628.00
2018-07-03T06:19:45.857Z,3632.00
2018-07-03T06:20:45.809Z,3640.00
2018-07-03T06:21:45.834Z,3652.00
2018-07-03T06:22:45.794Z,3660.00
2018-07-03T06:23:45.767Z,3672.00
2018-07-03T06:24:45.764Z,3676.00
2018-07-03T06:25:45.752Z,3684.00
2018-07-03T06:26:45.742Z,3688.00
2018-07-03T06:27:45.729Z,3692.00
2018-07-03T06:28:45.744Z,3696.00
2018-07-03T06:29:45.703Z,3704.00
2018-07-03T06:30:45.702Z,3708.00
2018-07-03T06:31:45.687Z,3720.00
2018-07-03T06:32:45.673Z,3728.00
2018-07-03T06:33:45.664Z,3732.00
2018-07-03T06:34:45.655Z,3736.00
2018-07-03T06:35:45.722Z,3736.00
2018-07-03T06:36:45.646Z,3736.00
2018-07-03T06:37:45.627Z,3736.00
2018-07-03T06:38:45.710Z,3732.00
2018-07-03T06:39:45.614Z,3736.00
2018-07-03T06:40:45.610Z,3732.00
2018-07-03T06:41:45.578Z,3732.00
2018-07-03T06:42:45.567Z,3736.00
2018-07-03T06:43:45.568Z,3736.00
2018-07-03T06:44:45.554Z,3736.00
2018-07-03T06:45:45.528Z,3736.00
2018-07-03T06:46:45.528Z,3736.00
2018-07-03T06:47:45.512Z,3740.00
2018-07-03T06:48:45.508Z,3740.00
2018-07-03T06:49:45.492Z,3744.00
2018-07-03T06:50:45.479Z,3748.00
2018-07-03T06:51:45.495Z,3752.00
2018-07-03T06:52:45.472Z,3756.00
2018-07-03T06:53:45.495Z,3752.00
2018-07-03T06:54:45.433Z,3760.00
2018-07-03T06:55:45.430Z,3752.00
2018-07-03T06:56:45.447Z,3756.00
2018-07-03T06:57:45.403Z,3760.00
2018-07-03T06:58:45.392Z,3768.00
2018-07-03T06:59:45.388Z,3768.00
2018-07-03T07:00:45.373Z,3772.00
2018-07-03T07:01:45.364Z,3772.00
2018-07-03T07:02:45.353Z,3776.00
2018-07-03T07:03:45.351Z,3784.00
2018-07-03T07:04:45.325Z,3788.00
2018-07-03T07:05:45.335Z,3796.00
2018-07-03T07:06:45.376Z,3800.00
2018-07-03T07:07:45.338Z,3800.00
2018-07-03T07:08:45.342Z,3804.00
2018-07-03T07:09:45.281Z,3804.00
2018-07-03T07:10:45.265Z,3808.00
2018-07-03T07:11:45.254Z,3808.00
2018-07-03T07:12:45.268Z,3816.00
2018-07-03T07:13:45.236Z,3820.00
2018-07-03T07:14:45.222Z,3820.00
2018-07-03T07:15:45.209Z,3828.00
2018-07-03T07:16:45.206Z,3832.00
2018-07-03T07:17:45.183Z,3836.00
2018-07-03T07:18:45.184Z,3844.00
2018-07-03T07:19:45.167Z,3844.00
2018-07-03T07:20:45.159Z,3852.00
2018-07-03T07:21:45.147Z,3856.00
2018-07-03T07:22:45.160Z,3856.00
2018-07-03T07:23:45.126Z,3868.00
2018-07-03T07:24:45.109Z,3872.00
2018-07-03T07:25:45.097Z,3880.00
2018-07-03T07:26:45.090Z,3892.00
2018-07-03T07:27:45.107Z,3904.00
2018-07-03T07:28:45.072Z,3912.00
2018-07-03T07:29:45.055Z,3932.00
2018-07-03T07:30:45.046Z,3948.00
2018-07-03T07:31:45.041Z,3952.00
2018-07-03T07:32:45.077Z,3956.00
2018-07-03T07:33:45.020Z,3968.00
2018-07-03T07:34:45.014Z,3980.00
2018-07-03T07:35:44.989Z,3992.00
2018-07-03T07:36:44.978Z,4008.00
2018-07-03T07:37:44.965Z,4020.00
2018-07-03T07:38:44.964Z,4028.00
2018-07-03T07:39:44.954Z,4040.00
2018-07-03T07:40:44.939Z,4052.00
2018-07-03T07:41:44.960Z,4068.00
2018-07-03T07:42:45.691Z,4080.00
2018-07-03T07:43:44.923Z,4096.00
2018-07-03T07:44:44.893Z,4112.00
2018-07-03T07:45:44.901Z,4128.00
2018-07-03T07:46:44.903Z,4144.00
2018-07-03T07:47:44.859Z,4164.00
2018-07-03T07:48:44.876Z,4180.00
2018-07-03T07:49:44.843Z,4188.00
2018-07-03T07:50:44.828Z,4200.00
2018-07-03T07:51:44.830Z,4212.00
2018-07-03T07:52:44.822Z,4224.00
2018-07-03T07:53:44.804Z,4236.00
2018-07-03T07:54:44.810Z,4248.00
2018-07-03T07:55:44.825Z,4256.00
2018-07-03T07:56:44.761Z,4268.00
2018-07-03T07:57:44.750Z,4288.00
2018-07-03T07:58:44.747Z,4300.00
2018-07-03T07:59:44.734Z,4320.00
2018-07-03T08:00:44.727Z,4340.00
2018-07-03T08:01:44.710Z,4356.00
2018-07-03T08:02:44.700Z,4372.00
2018-07-03T08:03:44.689Z,4388.00
2018-07-03T08:04:44.683Z,4400.00
2018-07-03T08:05:44.671Z,4428.00
2018-07-03T08:06:44.716Z,4444.00
2018-07-03T08:07:44.647Z,4472.00
2018-07-03T08:08:44.631Z,4504.00
2018-07-03T08:09:44.623Z,4532.00
2018-07-03T08:10:44.615Z,4568.00
2018-07-03T08:11:44.606Z,4624.00
2018-07-03T08:12:44.616Z,4748.00
2018-07-03T08:13:44.595Z,5820.00
2018-07-03T08:14:44.602Z,17344.00
2018-07-03T08:15:44.569Z,26336.00
2018-07-03T08:16:44.549Z,32736.00
2018-07-03T08:17:44.542Z,44640.00
2018-07-03T08:18:44.528Z,61440.00
2018-07-03T08:19:44.540Z,45344.00
2018-07-03T08:20:44.502Z,64928.00
2018-07-03T08:21:44.491Z,71968.00
2018-07-03T08:22:44.483Z,73216.00
2018-07-03T08:23:44.477Z,75136.00
2018-07-03T08:24:44.492Z,74304.00
2018-07-03T08:25:44.456Z,73120.00
2018-07-03T08:26:44.448Z,74112.00
2018-07-03T08:27:44.431Z,74080.00
2018-07-03T08:28:44.419Z,75744.00
2018-07-03T08:29:44.408Z,77344.00
2018-07-03T08:30:44.400Z,77760.00
2018-07-03T08:31:44.391Z,78816.00
2018-07-03T08:32:44.383Z,78496.00
2018-07-03T08:33:44.379Z,75904.00
2018-07-03T08:34:44.358Z,76832.00
2018-07-03T08:35:44.392Z,77728.00
2018-07-03T08:36:44.340Z,79200.00
2018-07-03T08:37:44.387Z,79584.00
2018-07-03T08:38:44.340Z,81088.00
2018-07-03T08:39:44.308Z,81344.00
2018-07-03T08:40:44.297Z,81376.00
2018-07-03T08:41:44.310Z,79968.00
2018-07-03T08:42:44.370Z,70368.00
2018-07-03T08:43:44.269Z,42976.00
2018-07-03T08:44:44.261Z,15360.00
2018-07-03T08:45:44.253Z,7344.00
2018-07-03T08:46:44.240Z,6884.00
2018-07-03T08:47:44.231Z,6676.00
2018-07-03T08:48:44.215Z,6540.00
2018-07-03T08:49:44.215Z,6444.00
2018-07-03T08:50:44.232Z,6384.00
2018-07-03T08:51:44.270Z,6364.00
2018-07-03T08:52:44.177Z,6364.00
2018-07-03T08:53:44.169Z,6384.00
2018-07-03T08:54:44.159Z,6392.00
2018-07-03T08:55:44.153Z,6416.00
2018-07-03T08:56:44.147Z,6440.00
2018-07-03T08:57:44.135Z,6460.00
2018-07-03T08:58:44.136Z,6500.00
2018-07-03T08:59:44.112Z,6528.00
2018-07-03T09:00:44.141Z,6548.00
2018-07-03T09:01:44.095Z,6588.00
2018-07-03T09:02:44.084Z,6620.00
2018-07-03T09:03:44.117Z,6660.00
2018-07-03T09:04:44.089Z,6712.00
2018-07-03T09:05:44.062Z,6772.00
2018-07-03T09:06:44.072Z,6860.00
2018-07-03T09:07:44.042Z,6976.00
2018-07-03T09:08:44.031Z,7168.00
2018-07-03T09:09:44.021Z,7484.00
2018-07-03T09:10:44.009Z,8068.00
2018-07-03T09:11:44.004Z,9156.00
2018-07-03T09:12:43.987Z,19264.00
2018-07-03T09:13:43.979Z,52832.00
2018-07-03T09:14:43.969Z,81888.00
2018-07-03T09:15:43.962Z,84864.00
2018-07-03T09:16:43.955Z,86400.00
2018-07-03T09:17:43.963Z,87648.00
2018-07-03T09:18:43.967Z,88224.00
2018-07-03T09:19:43.922Z,89376.00
2018-07-03T09:20:43.913Z,88064.00
2018-07-03T09:21:43.907Z,87744.00
2018-07-03T09:22:43.899Z,85536.00
2018-07-03T09:23:43.931Z,87040.00
2018-07-03T09:24:43.872Z,86272.00
2018-07-03T09:25:43.867Z,88704.00
2018-07-03T09:26:43.865Z,88320.00
2018-07-03T09:27:43.864Z,88288.00
2018-07-03T09:28:43.843Z,88224.00
2018-07-03T09:29:43.835Z,89152.00
2018-07-03T09:30:43.902Z,91168.00
2018-07-03T09:31:43.850Z,92512.00
2018-07-03T09:32:43.807Z,92544.00
2018-07-03T09:33:43.816Z,91456.00
2018-07-03T09:34:43.815Z,89440.00
2018-07-03T09:35:43.778Z,88320.00
2018-07-03T09:36:43.827Z,87744.00
2018-07-03T09:37:43.837Z,86848.00
2018-07-03T09:38:43.753Z,72896.00
2018-07-03T09:39:43.751Z,50624.00
2018-07-03T09:40:43.746Z,22592.00
2018-07-03T09:41:43.786Z,14584.00
2018-07-03T09:42:43.726Z,16076.00
2018-07-03T09:43:43.705Z,15152.00
2018-07-03T09:44:43.694Z,6912.00
2018-07-03T09:45:43.689Z,5876.00
2018-07-03T09:46:43.702Z,5660.00
2018-07-03T09:47:43.668Z,5588.00
2018-07-03T09:48:43.684Z,5708.00
2018-07-03T09:49:43.662Z,5568.00
2018-07-03T09:50:43.663Z,5580.00
2018-07-03T09:51:43.630Z,5420.00
2018-07-03T09:52:43.626Z,5412.00
2018-07-03T09:53:43.611Z,5408.00
2018-07-03T09:54:43.620Z,5424.00
2018-07-03T09:55:43.586Z,5424.00
2018-07-03T09:56:43.575Z,5424.00
2018-07-03T09:57:43.581Z,5416.00
2018-07-03T09:58:43.556Z,5428.00
2018-07-03T09:59:43.548Z,5428.00
2018-07-03T10:00:43.540Z,5448.00
2018-07-03T10:01:43.530Z,5448.00
2018-07-03T10:02:43.518Z,5448.00
2018-07-03T10:03:43.512Z,5460.00
2018-07-03T10:04:43.491Z,5460.00
2018-07-03T10:05:43.482Z,5472.00
2018-07-03T10:06:43.475Z,5480.00
2018-07-03T10:07:43.473Z,5492.00
2018-07-03T10:08:43.474Z,5480.00
2018-07-03T10:09:43.442Z,5500.00
2018-07-03T10:10:43.432Z,5496.00
2018-07-03T10:11:43.429Z,5516.00
2018-07-03T10:12:43.446Z,5536.00
2018-07-03T10:13:43.407Z,5544.00
2018-07-03T10:14:43.397Z,5556.00
2018-07-03T10:15:43.379Z,5576.00
2018-07-03T10:16:43.366Z,5588.00
2018-07-03T10:17:43.384Z,5600.00
2018-07-03T10:18:43.352Z,5612.00
2018-07-03T10:19:43.340Z,5636.00
2018-07-03T10:20:43.347Z,5660.00
2018-07-03T10:21:43.324Z,5708.00
2018-07-03T10:22:43.322Z,5732.00
2018-07-03T10:23:43.325Z,5776.00
2018-07-03T10:24:43.281Z,5816.00
2018-07-03T10:25:43.280Z,5864.00
2018-07-03T10:26:43.272Z,5912.00
2018-07-03T10:27:43.253Z,5940.00
2018-07-03T10:28:43.249Z,6020.00
2018-07-03T10:29:44.176Z,6088.00
2018-07-03T10:30:43.222Z,6128.00
2018-07-03T10:31:43.213Z,6500.00
2018-07-03T10:32:43.205Z,8740.00
2018-07-03T10:33:43.214Z,27872.00
2018-07-03T10:34:43.181Z,59040.00
2018-07-03T10:35:43.169Z,105440.00
2018-07-03T10:36:43.157Z,105024.00
2018-07-03T10:37:43.147Z,105152.00
2018-07-03T10:38:43.144Z,104832.00
2018-07-03T10:39:43.137Z,102624.00
2018-07-03T10:40:43.125Z,101920.00
2018-07-03T10:41:43.107Z,104448.00
2018-07-03T10:42:43.100Z,89504.00
2018-07-03T10:43:43.094Z,63616.00
2018-07-03T10:44:43.101Z,9924.00
2018-07-03T10:45:43.078Z,9088.00
2018-07-03T10:46:43.064Z,6412.00
2018-07-03T10:47:43.054Z,6292.00
2018-07-03T10:48:43.047Z,6188.00
2018-07-03T10:49:43.041Z,6168.00
2018-07-03T10:50:43.021Z,6216.00
2018-07-03T10:51:43.215Z,6176.00
2018-07-03T10:52:43.011Z,6192.00
2018-07-03T10:53:42.994Z,6244.00
2018-07-03T10:54:42.988Z,6280.00
2018-07-03T10:55:42.969Z,6320.00
2018-07-03T10:56:42.963Z,6348.00
2018-07-03T10:57:42.953Z,6384.00
2018-07-03T10:58:42.951Z,6392.00
2018-07-03T10:59:42.957Z,6416.00
2018-07-03T11:00:42.920Z,6436.00
2018-07-03T11:01:42.909Z,6500.00
2018-07-03T11:02:42.900Z,6552.00
2018-07-03T11:03:42.891Z,6616.00
2018-07-03T11:04:42.880Z,6664.00
2018-07-03T11:05:42.906Z,6724.00
2018-07-03T11:06:42.862Z,6760.00
2018-07-03T11:07:42.847Z,6920.00
2018-07-03T11:08:42.851Z,8600.00
2018-07-03T11:09:42.827Z,10400.00
2018-07-03T11:10:42.834Z,17376.00
2018-07-03T11:11:42.835Z,57792.00
2018-07-03T11:12:42.799Z,83104.00
2018-07-03T11:13:42.810Z,100320.00
2018-07-03T11:14:42.774Z,100800.00
2018-07-03T11:15:42.801Z,98240.00
2018-07-03T11:16:42.760Z,98912.00
2018-07-03T11:17:42.812Z,100640.00
2018-07-03T11:18:42.793Z,102528.00
2018-07-03T11:19:42.840Z,104512.00
2018-07-03T11:20:42.720Z,105120.00
2018-07-03T11:21:42.714Z,101344.00
2018-07-03T11:22:42.705Z,102080.00
2018-07-03T11:23:42.720Z,101984.00
2018-07-03T11:24:42.689Z,100704.00
2018-07-03T11:25:42.750Z,100512.00
2018-07-03T11:26:42.678Z,103296.00
2018-07-03T11:27:42.697Z,102688.00
2018-07-03T11:28:42.663Z,104192.00
2018-07-03T11:29:42.648Z,106272.00
2018-07-03T11:30:42.664Z,104992.00
2018-07-03T11:31:42.631Z,104960.00
2018-07-03T11:32:42.630Z,101504.00
2018-07-03T11:33:42.624Z,103552.00
2018-07-03T11:34:42.611Z,103040.00
2018-07-03T11:35:42.600Z,101088.00
2018-07-03T11:36:42.644Z,104096.00
2018-07-03T11:37:42.660Z,100352.00
2018-07-03T11:38:42.584Z,99776.00
2018-07-03T11:39:42.562Z,100992.00
2018-07-03T11:40:42.565Z,102976.00
2018-07-03T11:41:42.570Z,104544.00
2018-07-03T11:42:42.691Z,106560.00
2018-07-03T11:43:42.541Z,107296.00
2018-07-03T11:44:42.536Z,106944.00
2018-07-03T11:45:42.530Z,106016.00
2018-07-03T11:46:42.515Z,105536.00
2018-07-03T11:47:42.520Z,104640.00
2018-07-03T11:48:42.503Z,106016.00
2018-07-03T11:49:42.497Z,104096.00
2018-07-03T11:50:42.527Z,105312.00
2018-07-03T11:51:42.674Z,103232.00
2018-07-03T11:52:42.492Z,102240.00
2018-07-03T11:53:42.664Z,103488.00
2018-07-03T11:54:42.540Z,100992.00
2018-07-03T11:55:42.685Z,99936.00
2018-07-03T11:56:42.668Z,102176.00
2018-07-03T11:57:42.501Z,101504.00
2018-07-03T11:58:42.632Z,100704.00
2018-07-03T11:59:42.439Z,102144.00
2018-07-03T12:00:42.416Z,101664.00
2018-07-03T12:01:42.517Z,101280.00
2018-07-03T12:02:42.406Z,100576.00
2018-07-03T12:03:42.390Z,100672.00
2018-07-03T12:04:42.428Z,102976.00
2018-07-03T12:05:42.382Z,102336.00
2018-07-03T12:06:42.398Z,102656.00
2018-07-03T12:07:42.371Z,101408.00
2018-07-03T12:08:42.362Z,101952.00
2018-07-03T12:09:42.376Z,101952.00
2018-07-03T12:10:42.350Z,104384.00
2018-07-03T12:11:42.338Z,104352.00
2018-07-03T12:12:42.336Z,99168.00
2018-07-03T12:13:42.327Z,99424.00
2018-07-03T12:14:42.319Z,99840.00
2018-07-03T12:15:42.330Z,100992.00
2018-07-03T12:16:42.310Z,101216.00